Time;durP1;ratioP1;P1;durP2;ratioP2;P2;SDS_P1;SDS_P2;PMS_P1;PMS_P2;Temp;Humidity;BMP_temperature;BMP_pressure;BME280_temperature;BME280_humidity;BME280_pressure;Samples;Min_cycle;Max_cycle;Signal;HPM_P1;HPM_P2
2022/06/04 00:01:54;;;;;;;;;24.67;21.33;;;;;18.15;100.00;101081.41;5033544;28;45429;-80
2022/06/04 00:04:20;;;;;;;;;23.00;20.33;;;;;18.41;100.00;101129.84;5028722;28;45797;-80
2022/06/04 00:06:45;;;;;;;;;21.67;21.00;;;;;18.32;100.00;101111.94;5034578;28;46295;-82
2022/06/04 00:09:12;;;;;;;;;25.67;21.00;;;;;18.41;100.00;101129.03;5034663;28;45701;-81
2022/06/04 00:17:04;;;;;;;;;20.67;18.67;;;;;18.38;100.00;101132.31;5022697;28;45412;-80
2022/06/04 00:19:30;;;;;;;;;26.00;24.33;;;;;18.35;100.00;101131.72;5034153;28;45441;-80
2022/06/04 00:21:55;;;;;;;;;22.67;20.67;;;;;18.35;100.00;101125.31;5033537;28;45481;-82
2022/06/04 00:24:21;;;;;;;;;24.33;24.33;;;;;18.13;100.00;101092.75;5033978;28;45483;-80
2022/06/04 00:26:46;;;;;;;;;24.00;22.00;;;;;18.32;100.00;101126.69;5033641;28;46123;-83
2022/06/04 00:29:12;;;;;;;;;25.00;21.67;;;;;18.30;100.00;101122.47;5034166;28;45419;-81
2022/06/04 00:31:38;;;;;;;;;23.67;20.33;;;;;18.27;100.00;101134.91;5031380;28;45933;-79
2022/06/04 00:34:04;;;;;;;;;25.33;23.33;;;;;18.25;100.00;101133.47;5031433;28;45942;-81
2022/06/04 00:36:32;;;;;;;;;26.00;25.00;;;;;18.24;100.00;101140.13;5033968;28;46785;-81
2022/06/04 00:38:58;;;;;;;;;23.00;21.00;;;;;17.95;100.00;101095.78;5016512;28;45405;-80
2022/06/04 00:41:35;;;;;;;;;25.67;23.00;;;;;18.21;100.00;101133.13;5033399;28;45968;-81
2022/06/04 00:44:10;;;;;;;;;22.67;20.00;;;;;18.19;100.00;101132.56;5031756;28;46446;-80
2022/06/04 00:46:41;;;;;;;;;20.67;20.67;;;;;18.18;100.00;101114.19;5033210;28;45743;-81
2022/06/04 00:49:13;;;;;;;;;25.00;23.67;;;;;17.86;100.00;101058.38;5033458;28;45788;-80
2022/06/04 00:51:42;;;;;;;;;29.67;23.67;;;;;18.13;100.00;101098.31;5033453;28;45907;-80
2022/06/04 00:54:08;;;;;;;;;22.33;21.33;;;;;18.13;100.00;101084.44;5030998;28;46253;-81
2022/06/04 00:56:33;;;;;;;;;23.33;22.00;;;;;18.14;100.00;101086.13;5030709;28;46064;-78
2022/06/04 00:59:33;;;;;;;;;24.00;23.67;;;;;17.77;100.00;101025.50;5032522;28;45410;-81
2022/06/04 01:02:20;;;;;;;;;21.67;18.33;;;;;18.12;100.00;101074.41;5015621;28;45567;-80
2022/06/04 01:04:52;;;;;;;;;22.67;21.33;;;;;18.12;100.00;101074.41;5033598;28;46150;-81
2022/06/04 01:07:22;;;;;;;;;27.33;23.67;;;;;18.12;100.00;101082.72;5026656;28;46629;-79
2022/06/04 01:10:16;;;;;;;;;25.67;24.33;;;;;18.11;100.00;101075.53;5013958;28;45591;-81
2022/06/04 01:13:08;;;;;;;;;18.33;18.33;;;;;18.12;100.00;101088.28;5018695;28;45526;-81
2022/06/04 01:15:57;;;;;;;;;23.00;21.67;;;;;18.11;100.00;101080.22;5032920;28;45808;-83
2022/06/04 01:18:47;;;;;;;;;22.00;21.67;;;;;18.10;100.00;101075.75;5016419;28;45391;-82
2022/06/04 01:21:22;;;;;;;;;23.00;23.00;;;;;17.76;100.00;101015.47;5032656;28;45825;-81
2022/06/04 01:24:09;;;;;;;;;22.33;19.67;;;;;18.09;100.00;101066.59;5029661;28;45800;-80
2022/06/04 01:26:41;;;;;;;;;27.33;24.00;;;;;18.09;100.00;101061.03;5013446;28;45846;-82
2022/06/04 01:29:13;;;;;;;;;22.67;22.67;;;;;17.77;100.00;101011.63;5035142;28;45835;-81
2022/06/04 01:31:51;;;;;;;;;22.00;22.00;;;;;18.11;100.00;101058.00;5013151;28;45518;-80
2022/06/04 01:34:22;;;;;;;;;23.33;21.67;;;;;18.01;100.00;101033.72;5027611;28;45534;-81
2022/06/04 01:37:20;;;;;;;;;25.67;25.00;;;;;18.15;100.00;101043.38;5031660;28;46319;-81
2022/06/04 01:42:38;;;;;;;;;25.00;22.67;;;;;17.89;100.00;101002.38;5032953;28;45475;-79
2022/06/04 01:45:08;;;;;;;;;23.00;22.33;;;;;17.91;100.00;101003.84;5034330;28;45736;-80
2022/06/04 01:47:35;;;;;;;;;23.67;22.67;;;;;18.11;100.00;101035.78;5034196;28;45394;-80
2022/06/04 01:50:04;;;;;;;;;21.00;20.33;;;;;18.17;100.00;101032.00;5017179;28;46329;-82
2022/06/04 01:52:35;;;;;;;;;25.00;23.33;;;;;18.17;100.00;101029.22;5035167;28;45465;-82
2022/06/04 01:55:04;;;;;;;;;20.33;18.33;;;;;18.13;100.00;101031.69;5034285;28;45833;-82
2022/06/04 01:57:38;;;;;;;;;23.00;23.00;;;;;18.15;100.00;101034.22;5006367;28;45880;-79
2022/06/04 02:00:12;;;;;;;;;22.67;22.00;;;;;17.80;100.00;100986.16;5031730;28;45352;-80
2022/06/04 02:02:45;;;;;;;;;25.33;23.00;;;;;18.16;100.00;101045.06;5023807;28;45731;-83
2022/06/04 02:05:19;;;;;;;;;26.33;20.00;;;;;17.97;100.00;101013.94;5035641;28;45625;-80
2022/06/04 02:07:48;;;;;;;;;26.00;23.00;;;;;18.15;100.00;101043.38;5005679;28;45966;-80
2022/06/04 02:10:18;;;;;;;;;25.67;22.33;;;;;18.19;100.00;101052.06;5034516;28;47035;-82
2022/06/04 02:12:46;;;;;;;;;28.00;22.67;;;;;18.15;100.00;101042.53;5034937;28;45855;-85
2022/06/04 02:15:15;;;;;;;;;17.67;17.67;;;;;17.98;100.00;101020.34;5020198;28;45435;-81
2022/06/04 02:17:44;;;;;;;;;23.67;20.00;;;;;18.16;100.00;101049.78;5031909;28;45794;-81
2022/06/04 02:20:11;;;;;;;;;27.00;21.00;;;;;18.18;100.00;101061.47;5031057;28;46214;-81
2022/06/04 02:22:37;;;;;;;;;23.67;20.33;;;;;18.09;100.00;101047.16;5032845;28;45641;-81
2022/06/04 02:25:07;;;;;;;;;27.00;20.67;;;;;18.20;100.00;101066.75;5036703;28;45467;-83
2022/06/04 02:27:33;;;;;;;;;21.00;21.00;;;;;18.00;100.00;101035.63;5036363;28;45862;-78
2022/06/04 02:29:59;;;;;;;;;19.00;19.00;;;;;18.24;100.00;101052.13;5033306;28;45928;-79
2022/06/04 02:32:51;;;;;;;;;22.67;20.33;;;;;18.26;100.00;101033.25;5034117;28;45770;-81
2022/06/04 02:35:28;;;;;;;;;21.00;18.67;;;;;18.00;100.00;100980.13;5009059;28;45510;-81
2022/06/04 02:38:24;;;;;;;;;21.67;20.67;;;;;18.27;100.00;101017.47;5038761;28;45544;-81
2022/06/04 02:41:19;;;;;;;;;25.00;20.67;;;;;18.14;100.00;101002.84;5006305;28;46498;-84
2022/06/04 02:44:07;;;;;;;;;21.33;21.33;;;;;18.26;100.00;101024.94;5015626;28;45674;-80
2022/06/04 02:47:05;;;;;;;;;20.67;20.00;;;;;18.29;100.00;101023.59;5037406;28;44876;-82
2022/06/04 02:49:39;;;;;;;;;26.67;21.00;;;;;18.16;100.00;101003.41;4994855;28;46459;-81
2022/06/04 02:52:11;;;;;;;;;20.67;20.33;;;;;18.17;100.00;100991.22;5037128;28;46595;-80
2022/06/04 02:54:49;;;;;;;;;25.33;24.67;;;;;18.30;100.00;101014.19;5035290;28;45790;-82
2022/06/04 02:57:16;;;;;;;;;22.67;20.33;;;;;18.26;100.00;100988.00;5030473;28;45743;-83
2022/06/04 02:59:44;;;;;;;;;22.67;20.67;;;;;18.00;100.00;100957.91;5031320;28;46870;-79
2022/06/04 03:02:14;;;;;;;;;24.33;21.00;;;;;18.26;100.00;101002.72;5035530;28;47359;-80
2022/06/04 03:04:52;;;;;;;;;25.00;22.33;;;;;18.24;100.00;100995.75;5035604;28;45348;-80
2022/06/04 03:07:21;;;;;;;;;23.33;22.67;;;;;18.00;100.00;100940.44;5034654;28;45589;-80
2022/06/04 03:09:51;;;;;;;;;23.67;22.67;;;;;18.24;100.00;100988.25;5035623;28;45715;-81
2022/06/04 03:12:16;;;;;;;;;20.67;20.67;;;;;18.10;100.00;100962.81;5034745;28;45478;-80
2022/06/04 03:14:42;;;;;;;;;23.00;21.33;;;;;18.14;100.00;100975.09;5034182;28;45470;-81
2022/06/04 03:17:10;;;;;;;;;20.67;19.33;;;;;18.12;100.00;100979.19;5033940;28;45869;-80
2022/06/04 03:19:36;;;;;;;;;19.67;18.67;;;;;18.02;100.00;100966.00;5034861;28;45743;-83
2022/06/04 03:22:01;;;;;;;;;21.67;20.67;;;;;17.94;100.00;100952.56;5029511;28;47099;-83
2022/06/04 03:24:27;;;;;;;;;25.67;20.67;;;;;18.02;100.00;100959.59;5034229;28;45843;-82
2022/06/04 03:26:52;;;;;;;;;24.33;21.00;;;;;18.10;100.00;100967.50;5036057;28;45511;-81
2022/06/04 03:29:18;;;;;;;;;23.67;23.00;;;;;18.21;100.00;101007.38;5035728;28;46798;-83
2022/06/04 03:31:44;;;;;;;;;24.33;21.00;;;;;18.03;100.00;100966.84;5035525;28;48435;-81
2022/06/04 03:34:10;;;;;;;;;17.67;17.33;;;;;18.13;100.00;100981.72;5031329;28;45447;-81
2022/06/04 03:36:37;;;;;;;;;24.00;22.33;;;;;18.23;100.00;100977.41;5034546;28;45559;-81
2022/06/04 03:39:03;;;;;;;;;23.67;19.33;;;;;18.10;100.00;100956.38;5031123;28;45715;-82
2022/06/04 03:41:29;;;;;;;;;25.33;22.00;;;;;18.15;100.00;100984.25;5017101;28;47310;-80
2022/06/04 03:43:54;;;;;;;;;20.67;19.67;;;;;18.06;100.00;100985.75;5035016;28;45380;-81
2022/06/04 03:46:23;;;;;;;;;21.67;19.67;;;;;17.78;100.00;100948.66;5017793;28;45440;-81
2022/06/04 03:48:49;;;;;;;;;20.33;19.00;;;;;17.92;100.00;100975.00;5037557;28;45488;-83
2022/06/04 03:51:14;;;;;;;;;25.33;22.33;;;;;18.15;100.00;101023.09;5038119;28;45378;-83
2022/06/04 03:53:40;;;;;;;;;22.67;22.67;;;;;18.14;100.00;101018.63;5019289;28;45420;-81
2022/06/04 03:56:05;;;;;;;;;22.67;22.67;;;;;18.22;100.00;101015.44;5019176;28;45440;-83
2022/06/04 03:58:31;;;;;;;;;19.00;15.33;;;;;18.15;100.00;100993.41;5036730;28;45356;-82
2022/06/04 04:00:57;;;;;;;;;24.00;21.33;;;;;18.24;100.00;101007.69;5035034;28;45723;-81
2022/06/04 04:03:24;;;;;;;;;22.00;21.00;;;;;18.28;100.00;101019.16;5017914;28;45501;-82
2022/06/04 04:05:55;;;;;;;;;24.67;21.33;;;;;18.13;100.00;100986.44;5026357;28;45752;-81
2022/06/04 04:08:23;;;;;;;;;24.67;20.67;;;;;18.32;100.00;101017.53;5020349;28;45640;-81
2022/06/04 04:10:48;;;;;;;;;22.00;20.67;;;;;18.25;100.00;100992.72;5027163;28;45587;-81
2022/06/04 04:13:16;;;;;;;;;27.00;21.33;;;;;18.15;100.00;100982.28;5034185;28;45527;-79
2022/06/04 04:15:42;;;;;;;;;22.00;20.00;;;;;18.20;100.00;101000.13;5027093;28;45411;-82
2022/06/04 04:18:08;;;;;;;;;19.33;19.33;;;;;18.16;100.00;101000.66;5031822;28;45941;-81
2022/06/04 04:20:36;;;;;;;;;16.67;15.67;;;;;18.26;100.00;101032.44;5034127;28;45580;-81
2022/06/04 04:23:05;;;;;;;;;21.67;20.00;;;;;18.22;100.00;101039.56;5033404;28;45883;-80
2022/06/04 04:25:31;;;;;;;;;18.00;14.67;;;;;18.39;100.00;101064.56;5029433;28;45391;-80
2022/06/04 04:27:57;;;;;;;;;20.33;20.00;;;;;18.35;100.00;101064.22;5033907;28;45356;-81
2022/06/04 04:30:26;;;;;;;;;19.33;19.00;;;;;18.38;100.00;101066.50;5034377;28;45696;-81
2022/06/04 04:32:52;;;;;;;;;23.33;21.33;;;;;18.52;100.00;101090.06;5040182;28;45505;-82
2022/06/04 04:35:21;;;;;;;;;21.67;19.00;;;;;18.49;100.00;101060.00;5032866;28;45377;-81
2022/06/04 04:37:47;;;;;;;;;19.67;19.67;;;;;18.56;100.00;101076.50;5032956;28;45903;-81
2022/06/04 04:40:15;;;;;;;;;18.33;17.00;;;;;18.59;100.00;101069.59;5032303;28;46391;-82
2022/06/04 04:42:41;;;;;;;;;21.33;17.33;;;;;18.50;100.00;101063.63;5013647;28;45618;-77
2022/06/04 04:45:07;;;;;;;;;25.67;19.33;;;;;18.67;100.00;101081.13;5033328;28;45869;-82
2022/06/04 04:47:38;;;;;;;;;17.33;17.33;;;;;18.73;100.00;101087.59;5033392;28;45865;-80
2022/06/04 04:50:06;;;;;;;;;18.33;18.33;;;;;18.85;100.00;101074.47;5033903;28;45396;-80
2022/06/04 04:52:32;;;;;;;;;25.00;22.33;;;;;19.19;100.00;101035.44;5035461;28;45553;-80
2022/06/04 04:54:57;;;;;;;;;25.67;22.67;;;;;19.57;100.00;101069.78;5035273;28;45590;-79
2022/06/04 04:57:23;;;;;;;;;19.67;18.67;;;;;19.51;100.00;101075.56;5034155;28;45743;-80
2022/06/04 04:59:48;;;;;;;;;23.33;20.00;;;;;19.32;100.00;101055.59;5032974;28;46630;-80
2022/06/04 05:02:14;;;;;;;;;19.00;17.00;;;;;19.31;100.00;101068.66;5031820;28;45395;-79
2022/06/04 05:04:40;;;;;;;;;23.00;19.00;;;;;19.38;100.00;101094.31;5013643;28;45836;-84
2022/06/04 05:07:32;;;;;;;;;20.33;17.67;;;;;19.45;100.00;101135.88;5034680;28;45616;-86
2022/06/04 05:10:21;;;;;;;;;19.67;18.67;;;;;19.50;100.00;101112.81;5029477;28;45712;-86
2022/06/04 05:12:55;;;;;;;;;18.00;17.33;;;;;19.48;100.00;101065.81;5028440;28;45962;-85
2022/06/04 05:15:24;;;;;;;;;19.67;18.00;;;;;19.57;100.00;101069.78;5015098;28;45415;-84
2022/06/04 05:17:50;;;;;;;;;23.33;20.67;;;;;19.45;100.00;101046.03;5018824;28;45945;-82
2022/06/04 05:20:20;;;;;;;;;18.33;18.33;;;;;19.62;100.00;101076.53;5041364;28;46067;-85
2022/06/04 05:23:00;;;;;;;;;18.67;17.67;;;;;19.64;100.00;101075.16;5035299;28;45446;-84
2022/06/04 05:25:29;;;;;;;;;19.00;18.33;;;;;19.68;100.00;101067.13;5013969;28;45400;-79
2022/06/04 05:27:55;;;;;;;;;24.33;23.00;;;;;19.72;100.00;101057.16;5033126;28;45662;-82
2022/06/04 05:30:20;;;;;;;;;19.00;17.67;;;;;19.75;100.00;101064.97;5026452;28;45403;-83
2022/06/04 05:32:46;;;;;;;;;22.67;21.33;;;;;19.77;100.00;101051.63;5030106;28;45468;-80
2022/06/04 05:35:11;;;;;;;;;22.33;20.33;;;;;19.78;100.00;101042.22;5033181;28;45481;-82
2022/06/04 05:37:36;;;;;;;;;21.50;20.50;;;;;19.78;100.00;101047.78;5030299;28;45476;-81
2022/06/04 05:40:04;;;;;;;;;22.00;19.33;;;;;19.89;100.00;101048.72;5042313;28;45102;-81
2022/06/04 05:42:30;;;;;;;;;17.00;15.00;;;;;20.00;100.00;101041.28;5041512;28;45345;-80
2022/06/04 05:44:56;;;;;;;;;20.00;19.00;;;;;20.05;100.00;101008.75;5040674;28;45784;-82
2022/06/04 05:47:25;;;;;;;;;22.67;21.00;;;;;20.17;100.00;101016.94;5039178;28;45366;-80
2022/06/04 05:49:50;;;;;;;;;21.33;18.67;;;;;20.53;100.00;101031.13;5051399;28;45533;-82
2022/06/04 05:52:16;;;;;;;;;21.00;20.00;;;;;20.86;100.00;101017.13;5039669;28;45435;-82
2022/06/04 05:54:41;;;;;;;;;23.33;21.00;;;;;21.05;100.00;100996.00;5059878;28;45895;-81
2022/06/04 05:57:06;;;;;;;;;23.00;20.33;;;;;21.37;100.00;101010.88;5059470;28;45608;-81
2022/06/04 05:59:32;;;;;;;;;18.00;18.00;;;;;21.52;100.00;101024.91;5048839;28;45573;-81
2022/06/04 06:01:58;;;;;;;;;18.67;17.00;;;;;21.51;100.00;101026.00;5055196;28;45764;-81
2022/06/04 06:04:26;;;;;;;;;20.00;18.33;;;;;21.26;100.00;101022.03;5050877;28;45556;-84
2022/06/04 06:06:53;;;;;;;;;18.33;17.33;;;;;21.22;100.00;101078.63;5052872;28;45773;-82
2022/06/04 06:09:22;;;;;;;;;20.00;18.00;;;;;21.06;100.00;101131.53;5051437;28;45751;-82
2022/06/04 06:11:52;;;;;;;;;19.00;16.67;;;;;20.63;100.00;101089.69;5046702;28;46157;-80
2022/06/04 06:14:19;;;;;;;;;19.67;17.00;;;;;20.89;100.00;101128.09;5032629;28;45576;-82
2022/06/04 06:16:47;;;;;;;;;18.33;16.67;;;;;20.88;100.00;101110.50;5050619;28;46189;-79
2022/06/04 06:19:14;;;;;;;;;19.33;18.67;;;;;20.88;100.00;101110.50;5048674;28;45576;-85
2022/06/04 06:21:41;;;;;;;;;24.67;21.33;;;;;20.65;100.00;101064.34;5047902;28;45565;-79
2022/06/04 06:24:09;;;;;;;;;19.33;18.67;;;;;20.83;100.00;101101.28;5049928;28;45548;-80
2022/06/04 06:26:41;;;;;;;;;18.67;18.67;;;;;20.79;100.00;101124.13;5050388;28;45860;-80
2022/06/04 06:29:06;;;;;;;;;19.00;18.00;;;;;20.70;100.00;101116.53;5047091;28;45977;-81
2022/06/04 06:31:36;;;;;;;;;16.33;14.67;;;;;20.76;100.00;101118.25;5045503;28;45889;-80
2022/06/04 06:34:02;;;;;;;;;23.00;19.67;;;;;20.31;100.00;101049.91;5049456;28;45179;-80
2022/06/04 06:36:29;;;;;;;;;20.00;17.33;;;;;20.70;100.00;101124.88;5051957;28;45630;-80
2022/06/04 06:38:55;;;;;;;;;17.67;16.00;;;;;20.66;100.00;101140.47;5050787;28;45565;-80
2022/06/04 06:41:25;;;;;;;;;17.67;15.67;;;;;20.58;100.00;101137.06;5052290;28;45541;-81
2022/06/04 06:43:51;;;;;;;;;19.33;16.67;;;;;20.60;100.00;101139.56;5049421;28;45576;-88
2022/06/04 06:46:30;;;;;;;;;15.67;13.67;;;;;20.22;100.00;101089.38;5042152;28;46262;-82
2022/06/04 06:49:12;;;;;;;;;23.33;19.67;;;;;20.27;100.00;101120.06;5040061;28;49248;-81
2022/06/04 06:51:45;;;;;;;;;21.67;20.67;;;;;19.80;100.00;101080.91;5053281;28;45438;-89
2022/06/04 06:54:15;;;;;;;;;17.33;15.67;;;;;19.70;100.00;101082.47;5049336;28;45533;-82
2022/06/04 06:56:43;;;;;;;;;20.33;18.67;;;;;19.90;100.00;101114.44;5029037;28;46676;-80
2022/06/04 06:59:09;;;;;;;;;23.33;21.00;;;;;19.97;100.00;101120.63;5048589;28;46566;-81
2022/06/04 07:01:36;;;;;;;;;22.67;17.67;;;;;20.10;100.00;101139.69;5045509;28;45610;-83
2022/06/04 07:04:02;;;;;;;;;22.00;19.33;;;;;20.01;100.00;101107.00;5044231;28;45515;-83
2022/06/04 07:06:33;;;;;;;;;18.33;17.67;;;;;20.15;100.00;101108.28;5045409;28;47509;-80
2022/06/04 07:09:00;;;;;;;;;21.00;18.67;;;;;20.20;100.00;101105.53;5048974;28;46010;-83
2022/06/04 07:12:04;;;;;;;;;17.00;17.00;;;;;20.36;100.00;101117.66;5060951;28;45640;-92
2022/06/04 07:14:30;;;;;;;;;22.33;20.00;;;;;20.28;100.00;101090.25;5040829;28;45565;-84
2022/06/04 07:16:59;;;;;;;;;22.00;22.00;;;;;20.17;100.00;101072.63;5057107;28;46330;-83
2022/06/04 07:19:26;;;;;;;;;23.00;18.67;;;;;20.28;100.00;101062.41;5058184;28;46661;-86
2022/06/04 07:21:54;;;;;;;;;20.00;18.67;;;;;20.56;100.00;101100.25;5041084;28;45539;-85
2022/06/04 07:24:20;;;;;;;;;17.33;17.33;;;;;20.74;100.00;101124.09;5036792;28;45468;-85
2022/06/04 07:26:47;;;;;;;;;21.00;20.00;;;;;20.60;100.00;101065.16;5059091;28;46241;-84
2022/06/04 07:29:12;;;;;;;;;22.00;21.00;;;;;21.00;100.00;101099.16;5057604;28;48485;-84
2022/06/04 07:31:38;;;;;;;;;17.67;13.67;;;;;20.89;100.00;101067.59;5056634;28;45419;-83
2022/06/04 07:34:04;;;;;;;;;20.33;20.33;;;;;20.84;100.00;101070.34;5037479;28;45426;-83
2022/06/04 07:36:36;;;;;;;;;17.67;17.67;;;;;20.90;100.00;101113.03;5050831;28;45769;-86
2022/06/04 07:39:05;;;;;;;;;19.67;19.33;;;;;20.76;100.00;101118.25;5039848;28;47724;-87
2022/06/04 07:41:42;;;;;;;;;23.67;19.00;;;;;20.86;100.00;101131.41;5051963;28;45451;-86
2022/06/04 07:44:10;;;;;;;;;20.67;20.33;;;;;20.82;100.00;101139.47;5053163;28;45767;-83
2022/06/04 07:46:40;;;;;;;;;21.00;18.33;;;;;20.46;100.00;101114.09;5059321;28;45397;-87
2022/06/04 07:49:24;;;;;;;;;17.33;17.33;;;;;20.69;100.00;101168.66;5063812;28;45287;-81
2022/06/04 07:51:50;;;;;;;;;20.00;17.33;;;;;20.59;100.00;101174.94;5040715;28;45321;-80
2022/06/04 07:54:16;;;;;;;;;17.33;17.33;;;;;20.18;100.00;101130.03;5055302;28;45509;-83
2022/06/04 07:56:42;;;;;;;;;26.00;22.67;;;;;20.47;100.00;101163.13;5056441;28;45475;-87
2022/06/04 07:59:10;;;;;;;;;17.33;17.33;;;;;20.33;100.00;101129.31;5033814;28;45819;-83
2022/06/04 08:01:42;;;;;;;;;18.33;17.00;;;;;20.45;100.00;101143.06;5035688;28;46046;-83
2022/06/04 08:04:09;;;;;;;;;22.67;22.67;;;;;20.32;100.00;101113.69;5034866;28;45892;-83
2022/06/04 08:06:35;;;;;;;;;26.33;21.67;;;;;20.67;100.00;101156.09;5054053;28;45910;-83
2022/06/04 08:09:00;;;;;;;;;22.67;20.00;;;;;20.68;100.00;101149.41;5053640;28;45818;-82
2022/06/04 08:11:33;;;;;;;;;24.00;21.33;;;;;20.35;100.00;101071.38;5035170;28;45520;-83
2022/06/04 08:14:10;;;;;;;;;25.67;23.00;;;;;20.63;100.00;101103.63;5050615;28;45729;-82
2022/06/04 08:16:39;;;;;;;;;24.33;22.33;;;;;20.78;100.00;101122.44;5032637;28;45948;-83
2022/06/04 08:19:05;;;;;;;;;26.67;26.67;;;;;20.73;100.00;101102.88;5044673;28;45399;-84
2022/06/04 08:21:33;;;;;;;;;24.67;20.67;;;;;21.06;100.00;101134.31;5054630;28;45407;-83
2022/06/04 08:23:58;;;;;;;;;24.00;19.33;;;;;21.09;100.00;101105.06;5056453;28;45833;-81
2022/06/04 08:26:24;;;;;;;;;28.67;24.00;;;;;21.42;100.00;101119.72;5038095;28;46925;-82
2022/06/04 08:28:50;;;;;;;;;26.67;24.67;;;;;21.55;100.00;101124.00;5056767;28;46613;-83
2022/06/04 08:31:16;;;;;;;;;19.67;19.67;;;;;21.47;100.00;101111.38;5042969;28;45453;-84
2022/06/04 08:33:42;;;;;;;;;22.00;18.33;;;;;22.06;100.00;101131.66;5061982;28;45410;-86
2022/06/04 08:36:10;;;;;;;;;22.67;21.33;;;;;24.01;100.00;101131.25;5052729;28;45887;-84
2022/06/04 08:38:36;;;;;;;;;22.00;21.33;;;;;26.24;100.00;101081.63;5056864;28;48053;-85
2022/06/04 08:41:25;;;;;;;;;25.00;22.00;;;;;28.49;100.00;101056.59;5057016;28;45401;-89
2022/06/04 08:44:29;;;;;;;;;22.33;20.33;;;;;31.35;100.00;101083.66;5058726;28;45631;-91
2022/06/04 08:47:35;;;;;;;;;18.33;16.67;;;;;33.84;100.00;101069.81;5057913;28;45454;-92
2022/06/04 08:50:18;;;;;;;;;13.33;13.33;;;;;35.75;100.00;101071.97;5046717;28;47110;-87
2022/06/04 09:00:41;;;;;;;;;15.33;13.67;;;;;40.19;73.60;101008.41;4833114;29;45520;-88
2022/06/04 09:03:50;;;;;;;;;14.33;14.33;;;;;40.92;65.33;101015.91;4848014;29;45528;-85
2022/06/04 09:10:38;;;;;;;;;13.67;11.33;;;;;42.49;59.71;101081.22;4760328;29;45810;-91
2022/06/04 09:13:42;;;;;;;;;11.33;11.33;;;;;43.26;54.66;101031.13;4795709;29;45511;-90
2022/06/04 09:16:39;;;;;;;;;12.33;12.33;;;;;44.51;51.37;101090.69;4825044;29;47502;-91
2022/06/04 09:19:16;;;;;;;;;16.00;16.00;;;;;44.98;44.73;101044.44;4828775;29;45697;-86
2022/06/04 09:25:46;;;;;;;;;14.00;14.00;;;;;46.56;40.59;101034.53;4912773;28;45688;-92
2022/06/04 09:28:54;;;;;;;;;13.33;13.33;;;;;47.14;38.94;101045.50;4949762;28;46408;-92
2022/06/04 09:32:12;;;;;;;;;12.00;10.33;;;;;47.77;37.97;101083.22;4961158;28;46033;-89
2022/06/04 09:34:47;;;;;;;;;11.67;11.67;;;;;48.41;35.41;101080.41;4864784;29;45456;-89
2022/06/04 09:41:04;;;;;;;;;9.33;9.33;;;;;49.33;30.90;100990.31;4980294;28;45677;-93
2022/06/04 09:44:08;;;;;;;;;13.33;13.33;;;;;49.91;30.46;101047.25;4966360;28;46048;-94
2022/06/04 09:47:13;;;;;;;;;;;;;;;;;;;;;
2022/06/04 09:50:26;;;;;;;;;10.33;10.33;;;;;50.47;29.85;101053.34;5026564;28;74691;-92
2022/06/04 09:53:13;;;;;;;;;12.33;12.33;;;;;50.73;28.99;101056.06;5035204;28;47058;-90
2022/06/04 09:56:14;;;;;;;;;9.67;9.67;;;;;50.89;27.45;101060.78;5059191;28;45455;-92
2022/06/04 09:59:02;;;;;;;;;12.33;12.33;;;;;50.04;26.50;101018.00;5054052;28;45434;-89
2022/06/04 10:01:27;;;;;;;;;11.67;11.67;;;;;49.95;26.29;101050.06;5057420;28;47330;-84
2022/06/04 10:04:18;;;;;;;;;9.00;9.00;;;;;49.77;27.32;101062.41;5027479;28;46902;-81
2022/06/04 10:06:44;;;;;;;;;6.00;6.00;;;;;49.74;25.85;101063.34;5045311;28;45967;-81
2022/06/04 10:12:14;;;;;;;;;8.00;8.00;;;;;49.55;25.13;101042.81;5047903;28;45522;-80
2022/06/04 10:14:42;;;;;;;;;7.67;7.67;;;;;49.65;25.60;101064.91;5049046;28;47081;-82
2022/06/04 10:17:19;;;;;;;;;7.33;7.00;;;;;49.74;25.76;101054.59;5027281;28;45798;-81
2022/06/04 10:19:52;;;;;;;;;8.00;6.33;;;;;49.89;24.38;101061.53;5050899;28;45841;-83
2022/06/04 10:22:18;;;;;;;;;5.00;5.00;;;;;49.84;23.45;101044.59;5050226;28;46164;-81
2022/06/04 10:25:03;;;;;;;;;5.33;5.33;;;;;49.89;24.81;101046.09;5050232;28;45430;-80
2022/06/04 10:27:28;;;;;;;;;10.00;10.00;;;;;50.11;24.63;101058.56;5048569;28;46490;-82
2022/06/04 10:30:15;;;;;;;;;8.00;8.00;;;;;49.87;25.28;101052.38;5048004;28;45674;-74
2022/06/04 10:33:06;;;;;;;;;5.33;5.33;;;;;49.73;21.98;101045.03;5029197;28;47114;-77
2022/06/04 10:35:37;;;;;;;;;5.33;5.33;;;;;49.81;22.92;101046.38;5043251;28;47407;-74
2022/06/04 10:38:16;;;;;;;;;5.33;5.33;;;;;49.87;22.92;101040.72;5024341;28;45702;-81
2022/06/04 10:41:02;;;;;;;;;10.33;9.33;;;;;49.51;23.92;101050.03;5044425;28;46032;-81
2022/06/04 10:43:55;;;;;;;;;5.00;5.00;;;;;49.22;23.70;101034.44;5042632;28;45900;-80
2022/06/04 10:46:42;;;;;;;;;3.00;3.00;;;;;49.21;21.83;101032.00;5044270;28;46509;-80
2022/06/04 10:49:48;;;;;;;;;5.00;5.00;;;;;48.96;22.60;101039.53;5045124;28;45926;-81
2022/06/04 10:52:23;;;;;;;;;2.00;2.00;;;;;48.88;21.29;101041.84;4996187;28;45675;-82
2022/06/04 10:54:58;;;;;;;;;3.67;3.67;;;;;48.61;22.59;101033.63;5033462;28;45511;-80
2022/06/04 10:57:39;;;;;;;;;3.33;3.33;;;;;48.22;23.03;101035.72;4999521;28;47652;-80
2022/06/04 11:00:27;;;;;;;;;5.33;4.67;;;;;47.86;23.80;101028.13;5030036;28;45574;-80
2022/06/04 11:03:03;;;;;;;;;6.00;5.00;;;;;47.50;24.51;101024.16;5034133;28;45948;-80
2022/06/04 11:06:05;;;;;;;;;7.00;5.67;;;;;47.31;25.08;101025.94;5030367;28;46656;-74
2022/06/04 11:08:53;;;;;;;;;6.33;6.33;;;;;47.17;26.47;101020.53;5026976;28;46582;-71
2022/06/04 11:11:45;;;;;;;;;5.67;5.00;;;;;46.95;26.22;101026.09;5033305;28;45974;-73
2022/06/04 11:14:49;;;;;;;;;6.33;6.33;;;;;45.39;27.87;101017.19;5026103;28;45986;-78
2022/06/04 11:17:29;;;;;;;;;6.67;5.67;;;;;44.33;29.97;101019.50;5011220;28;46233;-83
2022/06/04 11:19:59;;;;;;;;;7.33;6.33;;;;;43.98;31.46;101021.63;5029917;28;46280;-79
2022/06/04 11:22:38;;;;;;;;;6.33;5.67;;;;;43.03;32.73;101006.63;5038246;28;45645;-77
2022/06/04 11:25:25;;;;;;;;;9.00;9.00;;;;;42.02;35.01;101008.59;5034004;28;45688;-75
2022/06/04 11:28:00;;;;;;;;;6.50;6.00;;;;;41.19;39.25;101006.00;4999562;28;45849;-74
2022/06/04 11:30:57;;;;;;;;;7.33;6.67;;;;;40.41;42.24;101003.53;5033135;28;46319;-79
2022/06/04 11:33:48;;;;;;;;;8.33;8.33;;;;;39.36;45.75;100973.63;5033389;28;45506;-75
2022/06/04 11:36:40;;;;;;;;;7.33;7.33;;;;;38.44;48.55;101008.94;5031263;28;45459;-75
2022/06/04 11:39:21;;;;;;;;;8.00;8.00;;;;;37.36;53.45;101007.63;5026760;28;45515;-80
2022/06/04 11:42:07;;;;;;;;;8.33;7.33;;;;;36.40;57.20;101002.78;5032784;28;45657;-80
2022/06/04 11:44:50;;;;;;;;;9.33;9.33;;;;;35.27;61.09;101004.50;5031052;28;45496;-76
2022/06/04 11:47:29;;;;;;;;;10.00;10.00;;;;;34.56;63.95;100990.09;5029230;28;45320;-76
2022/06/04 11:50:11;;;;;;;;;7.33;7.33;;;;;33.82;67.94;100984.81;5029940;28;45767;-75
2022/06/04 11:53:06;;;;;;;;;9.33;9.33;;;;;33.42;70.03;101000.66;5028070;28;45971;-77
2022/06/04 11:55:46;;;;;;;;;8.00;8.00;;;;;33.01;71.86;100999.78;5046164;28;45855;-74
2022/06/04 11:58:12;;;;;;;;;8.33;8.33;;;;;32.75;74.65;100999.31;5047652;28;45821;-76
2022/06/04 12:00:41;;;;;;;;;8.33;8.33;;;;;32.38;75.39;100998.06;5048895;28;45867;-79
2022/06/04 12:03:28;;;;;;;;;10.33;10.00;;;;;32.07;76.69;100990.03;5032613;28;47099;-76
2022/06/04 12:06:19;;;;;;;;;10.00;7.67;;;;;31.86;79.64;100985.22;5048827;28;45816;-75
2022/06/04 12:08:48;;;;;;;;;5.33;5.33;;;;;31.72;81.60;100986.69;5047137;28;45458;-76